createdAt,value
2022-10-17T00:00:58.909Z,17.67
2022-10-17T00:03:25.854Z,17.69
2022-10-17T00:05:52.802Z,17.69
2022-10-17T00:08:20.266Z,17.69
2022-10-17T00:11:00.973Z,17.69
2022-10-17T00:13:28.245Z,17.69
2022-10-17T00:15:55.349Z,17.69
2022-10-17T00:18:22.557Z,17.69
2022-10-17T00:20:49.637Z,17.70
2022-10-17T00:23:16.688Z,17.70
2022-10-17T00:25:43.859Z,17.70
2022-10-17T00:28:12.905Z,17.68
2022-10-17T00:30:40.181Z,17.65
2022-10-17T00:33:07.569Z,17.65
2022-10-17T00:35:34.480Z,17.62
2022-10-17T00:38:01.432Z,17.62
2022-10-17T00:40:28.511Z,17.60
2022-10-17T00:42:55.495Z,17.58
2022-10-17T00:45:29.365Z,17.58
2022-10-17T00:48:05.230Z,17.57
2022-10-17T00:50:33.741Z,17.58
2022-10-17T00:53:04.035Z,17.59
2022-10-17T00:55:36.749Z,17.61
2022-10-17T00:58:06.169Z,17.63
2022-10-17T01:00:33.521Z,17.65
2022-10-17T01:03:00.474Z,17.65
2022-10-17T01:05:28.036Z,17.67
2022-10-17T01:07:56.406Z,17.67
2022-10-17T01:10:39.587Z,17.68
2022-10-17T01:13:20.528Z,17.69
2022-10-17T01:16:11.932Z,17.68
2022-10-17T01:18:57.319Z,17.70
2022-10-17T01:21:33.091Z,17.70
2022-10-17T01:24:17.955Z,17.68
2022-10-17T01:27:14.407Z,17.70
2022-10-17T01:30:36.412Z,17.73
2022-10-17T01:33:30.752Z,17.79
2022-10-17T01:36:28.831Z,17.86
2022-10-17T01:39:15.021Z,17.91
2022-10-17T01:42:26.058Z,17.93
2022-10-17T01:45:20.800Z,17.94
2022-10-17T01:47:52.004Z,17.94
2022-10-17T01:50:41.559Z,17.93
2022-10-17T01:53:16.427Z,17.90
2022-10-17T01:55:46.397Z,17.87
2022-10-17T01:58:21.896Z,17.82
2022-10-17T02:00:50.195Z,17.78
2022-10-17T02:03:20.612Z,17.74
2022-10-17T02:05:48.084Z,17.70
2022-10-17T02:08:39.618Z,17.65
2022-10-17T02:11:20.101Z,17.62
2022-10-17T02:17:34.378Z,17.53
2022-10-17T02:20:13.198Z,17.47
2022-10-17T02:23:05.645Z,17.43
2022-10-17T02:25:45.319Z,17.40
2022-10-17T02:28:23.305Z,17.35
2022-10-17T02:31:06.091Z,17.29
2022-10-17T02:33:44.476Z,17.26
2022-10-17T02:36:19.546Z,17.19
2022-10-17T02:38:47.182Z,17.14
2022-10-17T02:41:18.888Z,17.09
2022-10-17T02:43:48.957Z,17.06
2022-10-17T02:46:21.727Z,17.02
2022-10-17T02:48:57.976Z,16.98
2022-10-17T02:51:45.229Z,16.92
2022-10-17T02:54:27.113Z,16.89
2022-10-17T02:57:08.905Z,16.85
2022-10-17T02:59:38.294Z,16.83
2022-10-17T03:02:06.494Z,16.81
2022-10-17T03:04:34.645Z,16.79
2022-10-17T03:07:01.582Z,16.78
2022-10-17T03:09:28.762Z,16.77
2022-10-17T03:11:55.857Z,16.76
2022-10-17T03:14:22.883Z,16.76
2022-10-17T03:16:49.829Z,16.74
2022-10-17T03:19:18.367Z,16.75
2022-10-17T03:21:45.390Z,16.74
2022-10-17T03:24:12.605Z,16.71
2022-10-17T03:26:39.553Z,16.71
2022-10-17T03:29:07.850Z,16.70
2022-10-17T03:31:36.612Z,16.69
2022-10-17T03:34:05.745Z,16.67
2022-10-17T03:36:32.715Z,16.69
2022-10-17T03:39:01.304Z,16.67
2022-10-17T03:41:29.217Z,16.68
2022-10-17T03:43:56.227Z,16.71
2022-10-17T03:46:24.052Z,16.71
2022-10-17T03:48:51.279Z,16.73
2022-10-17T03:51:18.284Z,16.75
2022-10-17T03:53:50.562Z,16.75
2022-10-17T03:56:21.933Z,16.74
2022-10-17T03:59:00.058Z,16.74
2022-10-17T04:01:28.702Z,16.72
2022-10-17T04:03:57.643Z,16.73
2022-10-17T04:06:27.488Z,16.72
2022-10-17T04:08:54.637Z,16.73
2022-10-17T04:11:26.377Z,16.73
2022-10-17T04:13:59.634Z,16.72
2022-10-17T04:16:27.878Z,16.71
2022-10-17T04:19:01.750Z,16.72
2022-10-17T04:21:34.068Z,16.71
2022-10-17T04:24:06.095Z,16.71
2022-10-17T04:26:59.330Z,16.72
2022-10-17T04:29:29.350Z,16.70
2022-10-17T04:32:22.522Z,16.69
2022-10-17T04:34:55.282Z,16.68
2022-10-17T04:37:23.487Z,16.67
2022-10-17T04:39:52.724Z,16.68
2022-10-17T04:42:20.374Z,16.66
2022-10-17T04:44:47.698Z,16.63
2022-10-17T04:47:17.203Z,16.62
2022-10-17T04:49:44.694Z,16.61
2022-10-17T04:52:13.390Z,16.59
2022-10-17T04:54:43.509Z,16.58
2022-10-17T04:57:13.643Z,16.55
2022-10-17T04:59:42.609Z,16.53
2022-10-17T05:02:18.814Z,16.50
2022-10-17T05:04:46.758Z,16.48
2022-10-17T05:07:15.129Z,16.47
2022-10-17T05:09:47.764Z,16.45
2022-10-17T05:12:16.090Z,16.45
2022-10-17T05:14:45.255Z,16.42
2022-10-17T05:17:12.586Z,16.40
2022-10-17T05:19:39.621Z,16.38
2022-10-17T05:22:08.463Z,16.38
2022-10-17T05:24:35.459Z,16.35
2022-10-17T05:27:02.676Z,16.33
2022-10-17T05:29:29.745Z,16.33
2022-10-17T05:32:05.934Z,16.34
2022-10-17T05:34:34.916Z,16.33
2022-10-17T05:37:02.029Z,16.32
2022-10-17T05:39:29.151Z,16.32
2022-10-17T05:41:57.446Z,16.33
2022-10-17T05:44:24.449Z,16.33
2022-10-17T05:46:55.553Z,16.33
2022-10-17T05:49:33.229Z,16.34
2022-10-17T05:52:10.302Z,16.35
2022-10-17T05:54:52.543Z,16.34
2022-10-17T05:57:20.203Z,16.36
2022-10-17T05:59:47.793Z,16.36
2022-10-17T06:02:19.142Z,16.37
2022-10-17T06:04:48.442Z,16.35
2022-10-17T06:07:16.586Z,16.35
2022-10-17T06:12:16.598Z,16.32
2022-10-17T06:14:44.418Z,16.33
2022-10-17T06:17:15.926Z,16.31
2022-10-17T06:19:44.836Z,16.30
2022-10-17T06:22:13.315Z,16.29
2022-10-17T06:24:42.248Z,16.28
2022-10-17T06:27:11.980Z,16.26
2022-10-17T06:29:40.146Z,16.27
2022-10-17T06:32:09.858Z,16.27
2022-10-17T06:34:40.163Z,16.26
2022-10-17T06:37:07.191Z,16.27
2022-10-17T06:39:36.076Z,16.27
2022-10-17T06:42:07.365Z,16.28
2022-10-17T06:44:57.466Z,16.30
2022-10-17T06:47:41.506Z,16.31
2022-10-17T06:50:31.241Z,16.33
2022-10-17T06:53:07.579Z,16.36
2022-10-17T06:56:10.166Z,16.41
2022-10-17T06:58:46.955Z,16.44
2022-10-17T07:01:24.097Z,16.48
2022-10-17T07:03:55.140Z,16.52
2022-10-17T07:06:24.622Z,16.56
2022-10-17T07:08:52.678Z,16.61
2022-10-17T07:11:21.639Z,16.66
2022-10-17T07:13:51.157Z,16.72
2022-10-17T07:16:18.262Z,16.76
2022-10-17T07:18:51.136Z,16.80
2022-10-17T07:21:18.914Z,16.86
2022-10-17T07:23:46.226Z,16.93
2022-10-17T07:26:17.008Z,16.99
2022-10-17T07:28:46.776Z,17.05
2022-10-17T07:31:27.490Z,17.12
2022-10-17T07:33:54.426Z,17.14
2022-10-17T07:36:21.411Z,17.22
2022-10-17T07:38:48.634Z,17.26
2022-10-17T07:41:19.280Z,17.31
2022-10-17T07:43:49.556Z,17.37
2022-10-17T07:46:19.931Z,17.38
2022-10-17T07:48:46.978Z,17.44
2022-10-17T07:51:14.015Z,17.48
2022-10-17T07:53:45.107Z,17.51
2022-10-17T07:56:15.010Z,17.55
2022-10-17T07:58:42.429Z,17.59
2022-10-17T08:01:15.397Z,17.64
2022-10-17T08:03:45.224Z,17.69
2022-10-17T08:06:12.811Z,17.74
2022-10-17T08:08:39.975Z,17.78
2022-10-17T08:11:11.803Z,17.85
2022-10-17T08:13:40.256Z,17.91
2022-10-17T08:16:11.369Z,17.99
2022-10-17T08:18:40.966Z,18.05
2022-10-17T08:21:08.569Z,18.10
2022-10-17T08:23:36.839Z,18.17
2022-10-17T08:26:10.236Z,18.23
2022-10-17T08:28:39.058Z,18.29
2022-10-17T08:31:09.915Z,18.31
2022-10-17T08:33:37.617Z,18.33
2022-10-17T08:36:06.572Z,18.37
2022-10-17T08:38:35.943Z,18.41
2022-10-17T08:41:14.653Z,18.47
2022-10-17T08:44:17.313Z,18.52
2022-10-17T08:46:51.698Z,18.56
2022-10-17T08:49:53.970Z,18.61
2022-10-17T08:52:44.351Z,18.67
2022-10-17T08:55:45.598Z,18.73
2022-10-17T08:58:25.978Z,18.78
2022-10-17T09:01:31.871Z,18.84
2022-10-17T09:04:07.613Z,18.92
2022-10-17T09:07:02.869Z,18.98
2022-10-17T09:10:04.893Z,19.08
2022-10-17T09:13:07.627Z,19.12
2022-10-17T09:16:11.249Z,19.15
2022-10-17T09:18:42.901Z,19.20
2022-10-17T09:21:37.722Z,19.25
2022-10-17T09:24:17.794Z,19.32
2022-10-17T09:26:46.829Z,19.39
2022-10-17T09:29:29.608Z,19.43
2022-10-17T09:32:26.036Z,19.48
2022-10-17T09:34:53.954Z,19.54
2022-10-17T09:37:30.218Z,19.58
2022-10-17T09:39:57.615Z,19.66
2022-10-17T09:42:27.739Z,19.71
2022-10-17T09:45:16.699Z,19.80
2022-10-17T09:48:22.870Z,19.83
2022-10-17T09:50:57.900Z,19.91
2022-10-17T09:53:41.010Z,19.93
2022-10-17T09:56:15.904Z,19.98
2022-10-17T09:58:55.139Z,20.04
2022-10-17T10:01:26.128Z,20.10
2022-10-17T10:04:13.959Z,20.19
2022-10-17T10:07:01.162Z,20.28
2022-10-17T10:09:33.345Z,20.32
2022-10-17T10:12:16.489Z,20.36
2022-10-17T10:14:46.285Z,20.42
2022-10-17T10:17:43.351Z,20.51
2022-10-17T10:21:12.418Z,20.53
2022-10-17T10:23:43.091Z,20.62
2022-10-17T10:26:27.378Z,20.72
2022-10-17T10:29:05.688Z,20.81
2022-10-17T10:31:39.430Z,20.86
2022-10-17T10:34:28.780Z,20.94
2022-10-17T10:37:07.178Z,21.05
2022-10-17T10:39:41.040Z,21.09
2022-10-17T10:42:21.916Z,21.14
2022-10-17T10:44:50.562Z,21.20
2022-10-17T10:47:30.941Z,21.30
2022-10-17T10:50:31.619Z,21.37
2022-10-17T10:53:36.833Z,21.42
2022-10-17T10:56:28.341Z,21.52
2022-10-17T10:59:25.963Z,21.56
2022-10-17T11:02:07.859Z,21.69
2022-10-17T11:04:49.647Z,21.75
2022-10-17T11:07:28.652Z,21.82
2022-10-17T11:10:41.173Z,21.96
2022-10-17T11:13:30.628Z,22.02
2022-10-17T11:17:04.507Z,22.03
2022-10-17T11:19:46.140Z,22.11
2022-10-17T11:22:28.189Z,22.24
2022-10-17T11:25:37.989Z,22.33
2022-10-17T11:28:15.077Z,22.44
2022-10-17T11:30:59.084Z,22.51
2022-10-17T11:33:44.096Z,22.60
2022-10-17T11:36:13.331Z,22.70
2022-10-17T11:38:50.130Z,22.77
2022-10-17T11:41:42.933Z,22.77
2022-10-17T11:44:39.458Z,22.83
2022-10-17T11:47:34.416Z,22.92
2022-10-17T11:53:39.032Z,23.01
2022-10-17T11:56:06.591Z,23.03
2022-10-17T11:58:50.234Z,23.11
2022-10-17T12:01:51.092Z,23.24
2022-10-17T12:04:49.653Z,23.29
2022-10-17T12:08:00.889Z,23.21
2022-10-17T12:10:45.491Z,23.23
2022-10-17T12:13:31.227Z,23.28
2022-10-17T12:16:19.147Z,23.25
2022-10-17T12:18:49.216Z,23.29
2022-10-17T12:21:16.359Z,23.32
2022-10-17T12:23:53.333Z,23.37
2022-10-17T12:26:29.037Z,23.37
2022-10-17T12:28:57.172Z,23.44
2022-10-17T12:31:33.439Z,23.52
2022-10-17T12:34:03.765Z,23.61
2022-10-17T12:36:30.671Z,23.64
2022-10-17T12:39:03.880Z,23.71
2022-10-17T12:41:40.144Z,23.60
2022-10-17T12:44:12.953Z,23.64
2022-10-17T12:47:05.512Z,23.69
2022-10-17T12:49:42.837Z,23.72
2022-10-17T12:52:20.408Z,23.80
2022-10-17T12:55:12.053Z,23.88
2022-10-17T12:58:03.100Z,23.95
2022-10-17T13:01:11.834Z,24.00
2022-10-17T13:03:46.573Z,24.06
2022-10-17T13:06:30.913Z,24.08
2022-10-17T13:09:05.892Z,24.07
2022-10-17T13:11:36.140Z,24.13
2022-10-17T13:14:09.210Z,24.03
2022-10-17T13:16:51.515Z,24.07
2022-10-17T13:19:26.087Z,24.16
2022-10-17T13:22:00.956Z,24.16
2022-10-17T13:24:37.791Z,24.17
2022-10-17T13:27:20.926Z,24.26
2022-10-17T13:29:47.868Z,24.23
2022-10-17T13:32:14.761Z,24.29
2022-10-17T13:34:41.919Z,24.27
2022-10-17T13:37:14.617Z,24.30
2022-10-17T13:39:54.751Z,24.35
2022-10-17T13:42:37.787Z,24.37
2022-10-17T13:45:20.796Z,24.41
2022-10-17T13:47:48.055Z,24.45
2022-10-17T13:50:45.269Z,24.38
2022-10-17T13:53:25.455Z,24.41
2022-10-17T13:56:28.230Z,24.41
2022-10-17T13:59:01.316Z,24.44
2022-10-17T14:01:29.881Z,24.40
2022-10-17T14:04:08.449Z,24.39
2022-10-17T14:06:47.637Z,24.40
2022-10-17T14:09:30.586Z,24.35
2022-10-17T14:12:12.630Z,24.39
2022-10-17T14:15:08.784Z,24.44
2022-10-17T14:17:34.493Z,24.51
2022-10-17T14:20:34.373Z,24.49
2022-10-17T14:23:17.593Z,24.54
2022-10-17T14:25:40.567Z,24.58
2022-10-17T14:28:09.509Z,24.53
2022-10-17T14:30:57.660Z,24.59
2022-10-17T14:33:31.503Z,24.53
2022-10-17T14:36:03.107Z,24.48
2022-10-17T14:38:30.494Z,24.56
2022-10-17T14:44:35.841Z,24.58
2022-10-17T14:47:38.115Z,24.58
2022-10-17T14:50:21.455Z,24.57
2022-10-17T14:53:22.247Z,24.51
2022-10-17T14:55:58.679Z,24.47
2022-10-17T14:58:29.028Z,24.51
2022-10-17T15:00:57.446Z,24.48
2022-10-17T15:03:25.439Z,24.42
2022-10-17T15:05:55.092Z,24.45
2022-10-17T15:08:23.857Z,24.44
2022-10-17T15:10:51.867Z,24.33
2022-10-17T15:13:27.980Z,24.35
2022-10-17T15:15:55.952Z,24.28
2022-10-17T15:18:22.875Z,24.24
2022-10-17T15:20:55.454Z,24.22
2022-10-17T15:23:31.888Z,24.21
2022-10-17T15:25:58.825Z,24.20
2022-10-17T15:28:27.244Z,24.15
2022-10-17T15:30:54.265Z,24.10
2022-10-17T15:33:21.205Z,24.08
2022-10-17T15:35:48.571Z,24.03
2022-10-17T15:38:18.175Z,23.96
2022-10-17T15:40:48.789Z,23.92
2022-10-17T15:43:19.676Z,23.85
2022-10-17T15:45:47.688Z,23.80
2022-10-17T15:48:27.459Z,23.76
2022-10-17T15:50:54.449Z,23.69
2022-10-17T15:53:22.176Z,23.66
2022-10-17T15:55:50.894Z,23.61
2022-10-17T15:58:19.139Z,23.59
2022-10-17T16:00:46.639Z,23.55
2022-10-17T16:03:14.273Z,23.52
2022-10-17T16:05:41.349Z,23.48
2022-10-17T16:08:08.258Z,23.43
2022-10-17T16:10:39.258Z,23.37
2022-10-17T16:13:06.173Z,23.32
2022-10-17T16:15:33.903Z,23.26
2022-10-17T16:18:02.981Z,23.19
2022-10-17T16:20:33.520Z,23.07
2022-10-17T16:23:02.908Z,22.99
2022-10-17T16:25:31.820Z,22.88
2022-10-17T16:28:00.453Z,22.78
2022-10-17T16:30:30.561Z,22.67
2022-10-17T16:32:57.638Z,22.55
2022-10-17T16:35:31.920Z,22.45
2022-10-17T16:38:01.981Z,22.32
2022-10-17T16:40:28.900Z,22.21
2022-10-17T16:42:55.854Z,22.11
2022-10-17T16:45:23.415Z,22.01
2022-10-17T16:47:50.660Z,21.95
2022-10-17T16:50:18.451Z,21.83
2022-10-17T16:52:45.495Z,21.74
2022-10-17T16:55:12.619Z,21.69
2022-10-17T16:57:39.653Z,21.65
2022-10-17T17:00:08.152Z,21.61
2022-10-17T17:02:35.273Z,21.55
2022-10-17T17:05:02.314Z,21.53
2022-10-17T17:07:29.874Z,21.49
2022-10-17T17:09:57.230Z,21.46
2022-10-17T17:12:24.276Z,21.42
2022-10-17T17:14:51.305Z,21.37
2022-10-17T17:17:30.337Z,21.35
2022-10-17T17:20:05.017Z,21.29
2022-10-17T17:22:32.045Z,21.26
2022-10-17T17:24:58.985Z,21.20
2022-10-17T17:27:29.050Z,21.18
2022-10-17T17:29:56.413Z,21.15
2022-10-17T17:32:23.366Z,21.10
2022-10-17T17:34:50.302Z,21.07
2022-10-17T17:37:17.275Z,21.03
2022-10-17T17:39:44.230Z,21.00
2022-10-17T17:42:11.171Z,20.97
2022-10-17T17:44:38.087Z,20.95
2022-10-17T17:47:05.224Z,20.93
2022-10-17T17:49:32.361Z,20.90
2022-10-17T17:51:59.406Z,20.88
2022-10-17T17:54:26.504Z,20.85
2022-10-17T17:56:53.498Z,20.83
2022-10-17T17:59:20.434Z,20.81
2022-10-17T18:01:47.489Z,20.78
2022-10-17T18:04:16.368Z,20.77
2022-10-17T18:06:43.424Z,20.74
2022-10-17T18:09:10.725Z,20.72
2022-10-17T18:11:38.289Z,20.71
2022-10-17T18:14:08.509Z,20.70
2022-10-17T18:16:37.501Z,20.68
2022-10-17T18:19:07.416Z,20.67
2022-10-17T18:21:36.093Z,20.66
2022-10-17T18:24:04.749Z,20.67
2022-10-17T18:26:32.181Z,20.66
2022-10-17T18:28:59.186Z,20.64
2022-10-17T18:31:32.006Z,20.63
2022-10-17T18:34:02.736Z,20.60
2022-10-17T18:36:32.494Z,20.60
2022-10-17T18:39:01.071Z,20.57
2022-10-17T18:41:28.397Z,20.55
2022-10-17T18:43:56.605Z,20.53
2022-10-17T18:46:30.762Z,20.50
2022-10-17T18:48:58.263Z,20.51
2022-10-17T18:51:26.821Z,20.50
2022-10-17T18:53:58.458Z,20.51
2022-10-17T18:56:26.286Z,20.51
2022-10-17T18:58:54.055Z,20.50
2022-10-17T19:01:24.835Z,20.49
2022-10-17T19:03:55.495Z,20.48
2022-10-17T19:06:26.996Z,20.47
2022-10-17T19:08:54.457Z,20.45
2022-10-17T19:11:25.418Z,20.44
2022-10-17T19:13:52.951Z,20.40
2022-10-17T19:16:25.725Z,20.38
2022-10-17T19:18:59.755Z,20.37
2022-10-17T19:21:27.035Z,20.34
2022-10-17T19:23:58.230Z,20.33
2022-10-17T19:26:28.492Z,20.31
2022-10-17T19:28:56.226Z,20.27
2022-10-17T19:31:27.272Z,20.25
2022-10-17T19:33:56.454Z,20.20
2022-10-17T19:36:30.477Z,20.18
2022-10-17T19:39:03.794Z,20.15
2022-10-17T19:41:31.543Z,20.13
2022-10-17T19:44:00.105Z,20.09
2022-10-17T19:46:29.285Z,20.05
2022-10-17T19:48:57.198Z,20.03
2022-10-17T19:51:26.427Z,19.99
2022-10-17T19:53:56.261Z,19.97
2022-10-17T19:56:25.163Z,19.92
2022-10-17T19:58:53.975Z,19.90
2022-10-17T20:01:27.966Z,19.88
2022-10-17T20:03:55.709Z,19.87
2022-10-17T20:06:23.952Z,19.85
2022-10-17T20:08:51.055Z,19.83
2022-10-17T20:11:21.761Z,19.82
2022-10-17T20:13:49.337Z,19.82
2022-10-17T20:16:21.266Z,19.82
2022-10-17T20:18:50.121Z,19.81
2022-10-17T20:21:21.209Z,19.82
2022-10-17T20:23:48.235Z,19.81
2022-10-17T20:29:18.300Z,19.79
2022-10-17T20:31:46.739Z,19.80
2022-10-17T20:34:16.184Z,19.78
2022-10-17T20:36:46.666Z,19.78
2022-10-17T20:39:15.494Z,19.76
2022-10-17T20:41:43.608Z,19.76
2022-10-17T20:44:11.712Z,19.76
2022-10-17T20:46:45.321Z,19.76
2022-10-17T20:49:19.596Z,19.74
2022-10-17T20:51:46.834Z,19.74
2022-10-17T20:54:13.936Z,19.72
2022-10-17T20:56:40.940Z,19.71
2022-10-17T20:59:12.831Z,19.69
2022-10-17T21:01:40.211Z,19.69
2022-10-17T21:04:33.202Z,19.67
2022-10-17T21:06:54.299Z,19.65
2022-10-17T21:09:22.280Z,19.64
2022-10-17T21:11:52.443Z,19.63
2022-10-17T21:14:19.505Z,19.59
2022-10-17T21:16:46.951Z,19.59
2022-10-17T21:19:15.080Z,19.57
2022-10-17T21:21:45.321Z,19.55
2022-10-17T21:24:16.979Z,19.54
2022-10-17T21:26:46.255Z,19.53
2022-10-17T21:29:14.211Z,19.53
2022-10-17T21:31:43.927Z,19.50
2022-10-17T21:34:19.962Z,19.48
2022-10-17T21:36:48.054Z,19.47
2022-10-17T21:39:15.713Z,19.46
2022-10-17T21:41:43.999Z,19.42
2022-10-17T21:44:15.878Z,19.40
2022-10-17T21:46:44.977Z,19.36
2022-10-17T21:49:14.577Z,19.33
2022-10-17T21:51:41.843Z,19.31
2022-10-17T21:54:09.152Z,19.27
2022-10-17T21:56:36.829Z,19.26
2022-10-17T21:59:04.812Z,19.23
2022-10-17T22:01:37.285Z,19.18
2022-10-17T22:04:08.181Z,19.16
2022-10-17T22:06:40.891Z,19.11
2022-10-17T22:09:22.223Z,19.07
2022-10-17T22:11:53.320Z,19.05
2022-10-17T22:14:22.379Z,19.03
2022-10-17T22:16:50.160Z,18.99
2022-10-17T22:19:23.754Z,18.95
2022-10-17T22:21:51.504Z,18.94
2022-10-17T22:26:48.773Z,18.92
2022-10-17T22:29:16.457Z,18.92
2022-10-17T22:31:44.084Z,18.91
2022-10-17T22:34:14.238Z,18.90
2022-10-17T22:36:42.018Z,18.90
2022-10-17T22:39:09.715Z,18.87
2022-10-17T22:41:36.993Z,18.88
2022-10-17T22:44:04.517Z,18.87
2022-10-17T22:46:31.456Z,18.87
2022-10-17T22:48:58.411Z,18.86
2022-10-17T22:51:25.383Z,18.87
2022-10-17T22:53:52.383Z,18.87
2022-10-17T22:56:20.926Z,18.85
2022-10-17T22:58:48.320Z,18.83
2022-10-17T23:01:19.914Z,18.82
2022-10-17T23:03:47.040Z,18.78
2022-10-17T23:06:14.906Z,18.76
2022-10-17T23:08:42.507Z,18.74
2022-10-17T23:11:10.430Z,18.70
2022-10-17T23:13:37.707Z,18.69
2022-10-17T23:16:05.126Z,18.67
2022-10-17T23:18:32.210Z,18.65
2022-10-17T23:20:59.260Z,18.62
2022-10-17T23:23:26.220Z,18.61
2022-10-17T23:25:53.133Z,18.60
2022-10-17T23:28:20.188Z,18.59
2022-10-17T23:30:47.160Z,18.60
2022-10-17T23:33:14.520Z,18.58
2022-10-17T23:35:41.831Z,18.57
2022-10-17T23:38:09.045Z,18.56
2022-10-17T23:40:35.984Z,18.55
2022-10-17T23:43:04.304Z,18.55
2022-10-17T23:45:36.140Z,18.53
2022-10-17T23:48:05.440Z,18.53
2022-10-17T23:50:32.412Z,18.54
2022-10-17T23:52:59.390Z,18.55
2022-10-17T23:55:26.395Z,18.56
2022-10-17T23:57:53.343Z,18.54
